createdAt,value
2022-12-03T00:01:34.511Z,3.76
2022-12-03T00:04:02.663Z,3.91
2022-12-03T00:06:34.474Z,3.79
2022-12-03T00:09:02.942Z,3.97
2022-12-03T00:11:32.368Z,3.91
2022-12-03T00:14:00.544Z,4.02
2022-12-03T00:16:28.578Z,4.02
2022-12-03T00:18:56.559Z,4.10
2022-12-03T00:21:24.875Z,4.12
2022-12-03T00:23:53.243Z,4.14
2022-12-03T00:26:21.204Z,4.02
2022-12-03T00:28:50.529Z,4.06
2022-12-03T00:31:18.619Z,4.04
2022-12-03T00:33:46.577Z,4.11
2022-12-03T00:36:14.488Z,4.17
2022-12-03T00:38:42.434Z,4.14
2022-12-03T00:41:10.527Z,4.15
2022-12-03T00:43:38.519Z,4.21
2022-12-03T00:46:07.957Z,4.24
2022-12-03T00:48:36.052Z,4.31
2022-12-03T00:51:04.212Z,4.33
2022-12-03T00:53:32.172Z,4.31
2022-12-03T00:56:01.650Z,4.39
2022-12-03T00:58:29.591Z,4.35
2022-12-03T01:00:57.524Z,4.15
2022-12-03T01:03:27.004Z,4.18
2022-12-03T01:05:54.996Z,4.18
2022-12-03T01:08:22.959Z,4.18
2022-12-03T01:10:50.872Z,4.24
2022-12-03T01:13:18.817Z,4.23
2022-12-03T01:15:46.953Z,4.14
2022-12-03T01:18:14.915Z,4.23
2022-12-03T01:20:44.281Z,4.28
2022-12-03T01:23:12.196Z,4.22
2022-12-03T01:25:40.127Z,4.09
2022-12-03T01:28:08.081Z,4.27
2022-12-03T01:30:56.102Z,4.32
2022-12-03T01:33:23.104Z,4.20
2022-12-03T01:35:52.394Z,4.11
2022-12-03T01:38:20.506Z,4.03
2022-12-03T01:40:50.002Z,4.21
2022-12-03T01:43:18.117Z,4.31
2022-12-03T01:45:46.105Z,4.13
2022-12-03T01:48:16.691Z,4.07
2022-12-03T01:50:45.302Z,4.28
2022-12-03T01:53:18.379Z,4.40
2022-12-03T01:55:48.840Z,4.37
2022-12-03T01:58:17.815Z,4.35
2022-12-03T02:00:45.776Z,4.37
2022-12-03T02:03:18.505Z,4.45
2022-12-03T02:05:46.665Z,4.33
2022-12-03T02:08:33.805Z,4.51
2022-12-03T02:11:04.983Z,4.54
2022-12-03T02:13:33.540Z,4.52
2022-12-03T02:16:01.743Z,4.49
2022-12-03T02:18:29.786Z,4.38
2022-12-03T02:21:07.085Z,4.33
2022-12-03T02:23:42.246Z,4.46
2022-12-03T02:26:11.828Z,4.49
2022-12-03T02:28:39.825Z,4.43
2022-12-03T02:31:08.311Z,4.51
2022-12-03T02:33:36.477Z,4.51
2022-12-03T02:36:04.926Z,4.42
2022-12-03T02:38:35.696Z,4.43
2022-12-03T02:41:07.432Z,4.38
2022-12-03T02:43:36.326Z,4.35
2022-12-03T02:46:06.787Z,4.38
2022-12-03T02:48:37.302Z,4.30
2022-12-03T02:51:08.268Z,4.48
2022-12-03T02:53:42.342Z,4.46
2022-12-03T02:56:12.995Z,4.44
2022-12-03T02:58:45.009Z,4.45
2022-12-03T03:01:14.613Z,4.38
2022-12-03T03:03:43.392Z,4.39
2022-12-03T03:06:11.673Z,4.36
2022-12-03T03:08:41.225Z,4.42
2022-12-03T03:11:09.643Z,4.36
2022-12-03T03:13:39.230Z,4.39
2022-12-03T03:16:09.942Z,4.35
2022-12-03T03:18:38.367Z,4.37
2022-12-03T03:21:06.691Z,4.37
2022-12-03T03:23:34.808Z,4.39
2022-12-03T03:26:05.922Z,4.40
2022-12-03T03:28:37.065Z,4.38
2022-12-03T03:31:07.241Z,4.39
2022-12-03T03:33:38.078Z,4.37
2022-12-03T03:36:06.740Z,4.34
2022-12-03T03:38:36.118Z,4.39
2022-12-03T03:41:06.413Z,4.33
2022-12-03T03:43:37.623Z,4.35
2022-12-03T03:46:07.743Z,4.36
2022-12-03T03:48:37.441Z,4.29
2022-12-03T03:51:09.582Z,4.36
2022-12-03T03:53:38.956Z,4.39
2022-12-03T03:56:07.489Z,4.40
2022-12-03T03:58:35.836Z,4.38
2022-12-03T04:01:04.142Z,4.37
2022-12-03T04:03:32.263Z,4.41
2022-12-03T04:06:01.582Z,4.28
2022-12-03T04:08:29.689Z,4.28
2022-12-03T04:11:14.881Z,4.29
2022-12-03T04:13:42.842Z,4.32
2022-12-03T04:16:10.839Z,4.35
2022-12-03T04:18:45.106Z,4.34
2022-12-03T04:21:33.924Z,4.35
2022-12-03T04:24:02.621Z,4.37
2022-12-03T04:26:48.537Z,4.37
2022-12-03T04:29:16.613Z,4.29
2022-12-03T04:32:01.866Z,4.33
2022-12-03T04:34:47.442Z,4.21
2022-12-03T04:37:16.890Z,4.29
2022-12-03T04:39:44.820Z,4.29
2022-12-03T04:42:12.849Z,4.34
2022-12-03T04:44:40.774Z,4.32
2022-12-03T04:47:11.078Z,4.36
2022-12-03T04:49:41.138Z,4.36
2022-12-03T04:52:09.218Z,4.36
2022-12-03T04:54:39.400Z,4.28
2022-12-03T04:57:08.724Z,4.33
2022-12-03T04:59:37.591Z,4.38
2022-12-03T05:02:06.917Z,4.39
2022-12-03T05:04:35.096Z,4.40
2022-12-03T05:07:03.333Z,4.39
2022-12-03T05:09:31.281Z,4.30
2022-12-03T05:12:00.593Z,4.30
2022-12-03T05:14:28.606Z,4.20
2022-12-03T05:16:56.644Z,4.40
2022-12-03T05:19:44.646Z,4.40
2022-12-03T05:22:11.553Z,4.49
2022-12-03T05:24:39.694Z,4.46
2022-12-03T05:27:09.012Z,4.37
2022-12-03T05:29:36.970Z,4.48
2022-12-03T05:32:05.022Z,4.46
2022-12-03T05:34:33.164Z,4.44
2022-12-03T05:37:01.065Z,4.43
2022-12-03T05:39:28.993Z,4.43
2022-12-03T05:42:16.476Z,4.36
2022-12-03T05:44:45.799Z,4.40
2022-12-03T05:47:13.738Z,4.35
2022-12-03T05:49:41.720Z,4.27
2022-12-03T05:52:09.841Z,4.33
2022-12-03T05:54:37.783Z,4.39
2022-12-03T05:57:05.814Z,4.26
2022-12-03T05:59:33.747Z,4.29
2022-12-03T06:02:03.123Z,4.26
2022-12-03T06:04:31.223Z,4.27
2022-12-03T06:06:59.154Z,4.28
2022-12-03T06:09:27.117Z,4.04
2022-12-03T06:11:55.048Z,3.94
2022-12-03T06:14:23.296Z,4.07
2022-12-03T06:16:51.220Z,4.22
2022-12-03T06:19:20.577Z,4.30
2022-12-03T06:21:48.515Z,4.25
2022-12-03T06:24:16.444Z,4.17
2022-12-03T06:26:44.404Z,4.20
2022-12-03T06:29:12.326Z,4.23
2022-12-03T06:31:40.334Z,4.27
2022-12-03T06:34:08.477Z,4.24
2022-12-03T06:36:37.875Z,4.16
2022-12-03T06:39:05.971Z,4.11
2022-12-03T06:41:33.927Z,4.03
2022-12-03T06:44:01.947Z,4.08
2022-12-03T06:46:30.315Z,4.12
2022-12-03T06:48:58.488Z,3.99
2022-12-03T06:51:26.405Z,3.74
2022-12-03T06:53:55.827Z,3.74
2022-12-03T06:56:23.761Z,3.87
2022-12-03T06:58:51.673Z,3.90
2022-12-03T07:01:19.848Z,3.91
2022-12-03T07:03:47.873Z,3.77
2022-12-03T07:06:15.872Z,3.77
2022-12-03T07:08:43.831Z,3.59
2022-12-03T07:11:26.963Z,3.67
2022-12-03T07:13:56.237Z,3.68
2022-12-03T07:16:25.875Z,3.55
2022-12-03T07:18:53.858Z,3.47
2022-12-03T07:21:21.850Z,3.42
2022-12-03T07:23:49.816Z,3.34
2022-12-03T07:26:19.396Z,3.40
2022-12-03T07:28:48.345Z,3.08
2022-12-03T07:31:16.688Z,3.49
2022-12-03T07:33:45.036Z,3.48
2022-12-03T07:36:12.945Z,3.17
2022-12-03T07:38:41.029Z,3.26
2022-12-03T07:41:08.942Z,3.31
2022-12-03T07:43:38.278Z,3.31
2022-12-03T07:46:06.621Z,3.49
2022-12-03T07:48:34.696Z,3.46
2022-12-03T07:51:02.745Z,3.52
2022-12-03T07:53:30.735Z,3.36
2022-12-03T07:55:58.791Z,3.55
2022-12-03T07:58:26.788Z,3.68
2022-12-03T08:00:56.279Z,3.73
2022-12-03T08:03:24.468Z,3.66
2022-12-03T08:05:52.426Z,3.65
2022-12-03T08:08:20.557Z,3.58
2022-12-03T08:10:48.626Z,3.69
2022-12-03T08:13:18.778Z,3.84
2022-12-03T08:15:47.097Z,3.99
2022-12-03T08:18:18.849Z,3.92
2022-12-03T08:20:49.084Z,3.94
2022-12-03T08:23:19.639Z,4.17
2022-12-03T08:25:48.286Z,3.89
2022-12-03T08:28:18.992Z,4.01
2022-12-03T08:30:57.845Z,4.02
2022-12-03T08:33:29.289Z,4.11
2022-12-03T08:35:57.370Z,3.79
2022-12-03T08:38:26.245Z,3.81
2022-12-03T08:40:55.767Z,3.62
2022-12-03T08:43:26.029Z,3.71
2022-12-03T08:45:55.101Z,3.75
2022-12-03T08:48:29.250Z,3.81
2022-12-03T08:50:59.004Z,3.92
2022-12-03T08:53:36.299Z,3.70
2022-12-03T08:56:06.885Z,3.76
2022-12-03T08:58:42.811Z,3.79
2022-12-03T09:01:34.535Z,3.79
2022-12-03T09:04:27.871Z,3.62
2022-12-03T09:06:56.597Z,3.69
2022-12-03T09:09:25.777Z,3.28
2022-12-03T09:11:54.961Z,3.64
2022-12-03T09:14:23.972Z,3.77
2022-12-03T09:16:55.774Z,3.75
2022-12-03T09:19:26.841Z,3.64
2022-12-03T09:21:55.910Z,3.66
2022-12-03T09:24:24.263Z,3.67
2022-12-03T09:26:52.265Z,3.75
2022-12-03T09:29:20.265Z,4.14
2022-12-03T09:31:48.393Z,4.20
2022-12-03T09:34:16.931Z,4.21
2022-12-03T09:36:46.235Z,4.14
2022-12-03T09:39:14.170Z,4.19
2022-12-03T09:41:42.209Z,4.18
2022-12-03T09:44:17.529Z,4.34
2022-12-03T09:46:48.895Z,4.29
2022-12-03T09:49:18.933Z,4.13
2022-12-03T09:51:48.384Z,4.22
2022-12-03T09:54:24.763Z,4.06
2022-12-03T09:56:53.527Z,3.95
2022-12-03T09:59:22.891Z,4.13
2022-12-03T10:01:51.194Z,4.24
2022-12-03T10:04:19.561Z,4.14
2022-12-03T10:06:49.306Z,4.21
2022-12-03T10:09:23.421Z,4.35
2022-12-03T10:11:51.469Z,4.23
2022-12-03T10:14:20.974Z,4.26
2022-12-03T10:16:49.717Z,4.42
2022-12-03T10:19:23.311Z,4.39
2022-12-03T10:21:52.964Z,4.30
2022-12-03T10:24:23.649Z,4.30
2022-12-03T10:26:53.725Z,4.26
2022-12-03T10:29:28.399Z,4.41
2022-12-03T10:32:03.534Z,4.49
2022-12-03T10:34:33.756Z,4.56
2022-12-03T10:37:17.281Z,4.33
2022-12-03T10:40:00.917Z,4.26
2022-12-03T10:42:31.081Z,4.36
2022-12-03T10:45:13.616Z,4.38
2022-12-03T10:47:41.591Z,4.35
2022-12-03T10:50:18.196Z,4.15
2022-12-03T10:52:48.235Z,4.46
2022-12-03T10:55:17.250Z,4.43
2022-12-03T10:57:46.388Z,4.42
2022-12-03T11:00:18.371Z,4.32
2022-12-03T11:02:50.533Z,4.43
2022-12-03T11:05:28.145Z,4.58
2022-12-03T11:07:58.073Z,4.43
2022-12-03T11:10:26.461Z,4.01
2022-12-03T11:13:45.052Z,4.23
2022-12-03T11:16:14.503Z,4.25
2022-12-03T11:19:04.161Z,4.29
2022-12-03T11:21:32.240Z,4.40
2022-12-03T11:24:22.781Z,4.54
2022-12-03T11:27:23.677Z,4.58
2022-12-03T11:30:00.221Z,4.30
2022-12-03T11:33:04.730Z,4.38
2022-12-03T11:36:08.279Z,4.50
2022-12-03T11:38:52.817Z,4.66
2022-12-03T11:41:33.428Z,4.53
2022-12-03T11:44:17.605Z,4.69
2022-12-03T11:46:47.329Z,4.78
2022-12-03T11:49:29.900Z,4.70
2022-12-03T11:51:59.248Z,4.61
2022-12-03T11:54:27.555Z,4.74
2022-12-03T11:56:57.294Z,4.67
2022-12-03T11:59:25.392Z,4.63
2022-12-03T12:01:53.301Z,4.73
2022-12-03T12:04:35.370Z,4.79
2022-12-03T12:07:03.636Z,4.51
2022-12-03T12:09:54.507Z,4.36
2022-12-03T12:12:30.720Z,4.49
2022-12-03T12:15:00.180Z,4.55
2022-12-03T12:17:33.157Z,4.38
2022-12-03T12:20:24.662Z,4.30
2022-12-03T12:22:53.637Z,4.27
2022-12-03T12:25:42.557Z,4.37
2022-12-03T12:28:11.846Z,4.32
2022-12-03T12:30:40.397Z,4.29
2022-12-03T12:33:23.346Z,4.37
2022-12-03T12:35:52.626Z,4.15
2022-12-03T12:38:22.283Z,4.15
2022-12-03T12:40:51.521Z,4.20
2022-12-03T12:43:26.175Z,4.20
2022-12-03T12:45:56.236Z,4.11
2022-12-03T12:48:27.136Z,4.19
2022-12-03T12:51:00.683Z,4.26
2022-12-03T12:53:30.924Z,4.26
2022-12-03T12:56:00.696Z,4.35
2022-12-03T12:58:33.728Z,4.20
2022-12-03T13:01:07.080Z,4.21
2022-12-03T13:03:38.028Z,4.12
2022-12-03T13:06:06.330Z,4.43
2022-12-03T13:08:40.372Z,4.35
2022-12-03T13:11:20.035Z,4.47
2022-12-03T13:13:49.502Z,4.59
2022-12-03T13:16:21.347Z,4.55
2022-12-03T13:18:50.894Z,4.58
2022-12-03T13:21:25.590Z,4.62
2022-12-03T13:23:55.984Z,4.55
2022-12-03T13:26:37.760Z,4.32
2022-12-03T13:29:14.928Z,4.50
2022-12-03T13:31:47.950Z,4.43
2022-12-03T13:34:21.761Z,4.55
2022-12-03T13:36:57.202Z,4.60
2022-12-03T13:39:31.493Z,4.63
2022-12-03T13:42:24.544Z,4.31
2022-12-03T13:44:54.688Z,4.47
2022-12-03T13:47:24.491Z,4.43
2022-12-03T13:49:55.614Z,4.46
2022-12-03T13:52:26.250Z,4.51
2022-12-03T13:54:56.202Z,4.60
2022-12-03T13:57:24.457Z,4.47
2022-12-03T13:59:53.985Z,4.55
2022-12-03T14:02:22.284Z,4.60
2022-12-03T14:04:52.170Z,4.52
2022-12-03T14:07:23.331Z,4.45
2022-12-03T14:09:51.529Z,4.17
2022-12-03T14:12:33.669Z,4.29
2022-12-03T14:15:03.557Z,4.28
2022-12-03T14:17:31.958Z,4.28
2022-12-03T14:20:01.493Z,4.24
2022-12-03T14:22:29.500Z,4.11
2022-12-03T14:24:58.493Z,4.17
2022-12-03T14:27:26.539Z,4.25
2022-12-03T14:29:54.693Z,4.27
2022-12-03T14:32:24.249Z,3.94
2022-12-03T14:34:52.195Z,4.01
2022-12-03T14:37:20.608Z,4.22
2022-12-03T14:39:48.645Z,4.22
2022-12-03T14:42:16.958Z,4.00
2022-12-03T14:44:47.141Z,3.97
2022-12-03T14:47:16.436Z,3.91
2022-12-03T14:49:45.788Z,3.77
2022-12-03T14:52:13.827Z,4.15
2022-12-03T14:54:42.783Z,4.12
2022-12-03T14:57:12.552Z,4.09
2022-12-03T14:59:40.861Z,4.16
2022-12-03T15:02:08.984Z,4.36
2022-12-03T15:04:37.268Z,3.88
2022-12-03T15:07:06.904Z,4.03
2022-12-03T15:09:35.125Z,4.32
2022-12-03T15:12:03.069Z,4.36
2022-12-03T15:14:31.153Z,4.18
2022-12-03T15:16:59.171Z,4.30
2022-12-03T15:19:27.380Z,4.19
2022-12-03T15:21:55.407Z,4.27
2022-12-03T15:24:24.821Z,4.07
2022-12-03T15:26:53.617Z,4.30
2022-12-03T15:29:22.441Z,4.22
2022-12-03T15:31:50.635Z,4.26
2022-12-03T15:34:22.499Z,4.12
2022-12-03T15:36:51.309Z,4.10
2022-12-03T15:39:19.304Z,4.17
2022-12-03T15:41:49.476Z,3.86
2022-12-03T15:44:17.465Z,3.72
2022-12-03T15:46:45.502Z,3.84
2022-12-03T15:49:13.550Z,3.84
2022-12-03T15:51:41.600Z,3.96
2022-12-03T15:54:09.598Z,3.97
2022-12-03T15:56:37.868Z,4.09
2022-12-03T15:59:07.331Z,4.06
2022-12-03T16:01:35.461Z,3.89
2022-12-03T16:04:03.569Z,4.08
2022-12-03T16:06:31.612Z,4.11
2022-12-03T16:08:59.638Z,4.10
2022-12-03T16:11:27.741Z,4.12
2022-12-03T16:13:55.666Z,4.01
2022-12-03T16:16:25.028Z,4.04
2022-12-03T16:18:52.944Z,4.25
2022-12-03T16:21:26.249Z,4.01
2022-12-03T16:23:54.840Z,4.21
2022-12-03T16:26:23.274Z,4.04
2022-12-03T16:28:51.268Z,4.08
2022-12-03T16:31:35.864Z,4.16
2022-12-03T16:34:03.878Z,4.08
2022-12-03T16:36:31.825Z,4.17
2022-12-03T16:39:00.133Z,4.15
2022-12-03T16:41:28.254Z,3.73
2022-12-03T16:43:56.202Z,3.91
2022-12-03T16:46:26.813Z,4.01
2022-12-03T16:48:58.024Z,3.84
2022-12-03T16:51:26.836Z,3.82
2022-12-03T16:53:55.420Z,3.88
2022-12-03T16:56:23.344Z,3.94
2022-12-03T16:58:51.378Z,3.84
2022-12-03T17:01:19.344Z,3.86
2022-12-03T17:03:47.280Z,3.75
2022-12-03T17:06:16.833Z,3.79
2022-12-03T17:08:49.355Z,3.80
2022-12-03T17:11:18.550Z,3.47
2022-12-03T17:13:46.612Z,3.70
2022-12-03T17:16:14.617Z,3.58
2022-12-03T17:18:42.784Z,3.52
2022-12-03T17:21:10.745Z,3.56
2022-12-03T17:23:40.072Z,3.61
2022-12-03T17:26:08.118Z,3.74
2022-12-03T17:28:36.069Z,3.39
2022-12-03T17:31:04.162Z,3.45
2022-12-03T17:33:32.206Z,3.39
2022-12-03T17:36:00.141Z,3.19
2022-12-03T17:38:28.158Z,3.31
2022-12-03T17:40:57.497Z,3.42
2022-12-03T17:43:25.551Z,3.28
2022-12-03T17:45:53.533Z,3.21
2022-12-03T17:48:21.472Z,3.39
2022-12-03T17:50:50.237Z,3.40
2022-12-03T17:53:18.173Z,3.45
2022-12-03T17:55:47.044Z,3.42
2022-12-03T17:58:16.526Z,3.41
2022-12-03T18:00:45.160Z,3.19
2022-12-03T18:03:13.091Z,3.30
2022-12-03T18:05:41.770Z,3.29
2022-12-03T18:08:09.832Z,3.39
2022-12-03T18:10:37.831Z,3.39
2022-12-03T18:13:05.771Z,3.59
2022-12-03T18:15:35.094Z,3.69
2022-12-03T18:18:03.061Z,3.67
2022-12-03T18:20:31.113Z,3.70
2022-12-03T18:22:59.967Z,3.62
2022-12-03T18:25:28.387Z,3.54
2022-12-03T18:27:56.328Z,3.41
2022-12-03T18:30:24.367Z,3.42
2022-12-03T18:32:53.706Z,3.27
2022-12-03T18:35:21.768Z,3.19
2022-12-03T18:37:51.156Z,3.30
2022-12-03T18:40:22.992Z,3.21
2022-12-03T18:42:51.167Z,3.24
2022-12-03T18:45:19.377Z,3.14
2022-12-03T18:47:47.392Z,3.26
2022-12-03T18:50:16.785Z,3.35
2022-12-03T18:52:44.697Z,3.32
2022-12-03T18:55:17.769Z,3.19
2022-12-03T18:57:46.074Z,3.22
2022-12-03T19:00:15.415Z,3.27
2022-12-03T19:03:02.593Z,3.31
2022-12-03T19:05:34.476Z,3.39
2022-12-03T19:08:02.724Z,3.18
2022-12-03T19:10:30.837Z,3.16
2022-12-03T19:12:58.841Z,2.92
2022-12-03T19:15:26.898Z,3.15
2022-12-03T19:17:54.929Z,3.16
2022-12-03T19:20:22.866Z,3.13
2022-12-03T19:22:52.168Z,3.21
2022-12-03T19:25:20.186Z,3.08
2022-12-03T19:27:49.314Z,3.06
2022-12-03T19:30:17.946Z,2.93
2022-12-03T19:32:46.125Z,2.79
2022-12-03T19:35:14.163Z,2.72
2022-12-03T19:37:42.314Z,2.70
2022-12-03T19:40:12.294Z,2.81
2022-12-03T19:42:41.060Z,2.75
2022-12-03T19:45:10.308Z,2.78
2022-12-03T19:47:38.941Z,2.48
2022-12-03T19:50:08.635Z,2.67
2022-12-03T19:52:37.611Z,2.48
2022-12-03T19:55:06.459Z,2.40
2022-12-03T19:57:35.751Z,2.44
2022-12-03T20:00:03.899Z,2.49
2022-12-03T20:02:32.165Z,2.26
2022-12-03T20:05:00.279Z,2.07
2022-12-03T20:07:29.145Z,2.26
2022-12-03T20:09:57.682Z,2.23
2022-12-03T20:12:25.837Z,2.11
2022-12-03T20:14:55.278Z,2.17
2022-12-03T20:17:23.233Z,2.22
2022-12-03T20:19:51.702Z,2.34
2022-12-03T20:22:19.798Z,2.28
2022-12-03T20:24:47.979Z,2.23
2022-12-03T20:27:21.160Z,2.22
2022-12-03T20:29:50.903Z,2.03
2022-12-03T20:32:20.253Z,2.11
2022-12-03T20:34:49.727Z,2.14
2022-12-03T20:37:18.068Z,2.20
2022-12-03T20:39:45.987Z,2.16
2022-12-03T20:42:14.288Z,2.21
2022-12-03T20:44:42.223Z,2.10
2022-12-03T20:47:10.235Z,1.84
2022-12-03T20:49:40.508Z,1.93
2022-12-03T20:52:08.433Z,1.98
2022-12-03T20:54:36.355Z,1.76
2022-12-03T20:57:05.186Z,1.81
2022-12-03T20:59:33.813Z,1.64
2022-12-03T21:02:01.863Z,1.79
2022-12-03T21:04:29.878Z,1.83
2022-12-03T21:06:59.332Z,1.94
2022-12-03T21:09:27.265Z,1.87
2022-12-03T21:11:55.205Z,1.99
2022-12-03T21:14:23.270Z,1.89
2022-12-03T21:17:07.713Z,1.75
2022-12-03T21:19:36.606Z,1.76
2022-12-03T21:22:06.370Z,1.77
2022-12-03T21:24:34.565Z,1.87
2022-12-03T21:27:02.529Z,1.61
2022-12-03T21:29:30.486Z,1.58
2022-12-03T21:31:58.416Z,1.63
2022-12-03T21:34:30.107Z,1.48
2022-12-03T21:37:02.220Z,1.56
2022-12-03T21:39:31.537Z,1.62
2022-12-03T21:42:19.349Z,1.42
2022-12-03T21:44:47.412Z,1.51
2022-12-03T21:47:15.407Z,1.57
2022-12-03T21:49:43.378Z,1.59
2022-12-03T21:52:11.548Z,1.61
2022-12-03T21:54:40.912Z,1.60
2022-12-03T21:57:09.059Z,1.94
2022-12-03T21:59:36.995Z,1.80
2022-12-03T22:02:05.207Z,1.69
2022-12-03T22:04:33.210Z,1.63
2022-12-03T22:07:01.116Z,1.67
2022-12-03T22:09:29.348Z,1.35
2022-12-03T22:12:00.860Z,1.50
2022-12-03T22:14:29.432Z,1.50
2022-12-03T22:16:57.504Z,1.44
2022-12-03T22:19:26.460Z,1.51
2022-12-03T22:21:54.396Z,1.53
2022-12-03T22:24:23.771Z,1.62
2022-12-03T22:26:52.286Z,1.56
2022-12-03T22:29:21.868Z,1.53
2022-12-03T22:31:49.808Z,1.55
2022-12-03T22:34:17.767Z,1.47
2022-12-03T22:36:45.747Z,1.50
2022-12-03T22:39:13.919Z,1.54
2022-12-03T22:41:41.888Z,1.49
2022-12-03T22:44:10.408Z,1.54
2022-12-03T22:46:39.951Z,1.64
2022-12-03T22:49:07.995Z,1.61
2022-12-03T22:51:36.440Z,1.57
2022-12-03T22:54:05.678Z,1.49
2022-12-03T22:56:33.982Z,1.30
2022-12-03T22:59:01.921Z,1.23
2022-12-03T23:01:31.460Z,1.44
2022-12-03T23:04:01.551Z,1.40
2022-12-03T23:06:30.334Z,1.25
2022-12-03T23:08:59.830Z,1.27
2022-12-03T23:11:28.780Z,1.26
2022-12-03T23:13:56.690Z,1.22
2022-12-03T23:16:27.241Z,1.29
2022-12-03T23:18:55.526Z,1.42
2022-12-03T23:21:29.880Z,1.33
2022-12-03T23:23:58.718Z,1.23
2022-12-03T23:26:27.490Z,1.33
2022-12-03T23:28:55.521Z,1.29
2022-12-03T23:31:26.285Z,1.09
2022-12-03T23:33:55.407Z,1.09
2022-12-03T23:36:26.073Z,1.11
2022-12-03T23:38:54.689Z,1.02
2022-12-03T23:41:24.433Z,1.13
2022-12-03T23:43:53.057Z,1.14
2022-12-03T23:46:23.781Z,1.22
2022-12-03T23:48:52.897Z,1.29
2022-12-03T23:51:23.361Z,1.22
2022-12-03T23:53:53.896Z,1.25
2022-12-03T23:56:24.394Z,1.23
2022-12-03T23:58:52.906Z,1.22
